Time;durP1;ratioP1;P1;durP2;ratioP2;P2;SDS_P1;SDS_P2;PMS_P1;PMS_P2;Temp;Humidity;BMP_temperature;BMP_pressure;BME280_temperature;BME280_humidity;BME280_pressure;Samples;Min_cycle;Max_cycle;Signal;HPM_P1;HPM_P2
2023/10/18 00:02:49;;;;;;;0.00;0.00;;;;;;;6.84;100.00;101230.78;5109352;28;20048;-43
2023/10/18 00:05:20;;;;;;;0.00;0.00;;;;;;;6.82;100.00;101229.13;5094473;28;20038;-43
2023/10/18 00:07:46;;;;;;;0.00;0.00;;;;;;;6.79;100.00;101217.84;5118698;28;20077;-45
2023/10/18 00:10:11;;;;;;;0.00;0.00;;;;;;;6.78;100.00;101222.34;5106640;28;20032;-43
2023/10/18 00:12:38;;;;;;;0.00;0.00;;;;;;;6.78;100.00;101217.00;5115171;28;20063;-43
2023/10/18 00:15:05;;;;;;;0.00;0.00;;;;;;;6.74;100.00;101207.63;5113301;28;20482;-43
2023/10/18 00:17:31;;;;;;;0.00;0.00;;;;;;;6.72;100.00;101214.94;5113829;28;20024;-46
2023/10/18 00:19:57;;;;;;;0.00;0.00;;;;;;;6.66;100.00;101212.88;5095394;28;20031;-43
2023/10/18 00:22:22;;;;;;;0.00;0.00;;;;;;;6.62;100.00;101206.09;5114119;28;20123;-43
2023/10/18 00:38:16;;;;;;;0.00;0.00;;;;;;;6.28;100.00;101200.47;5095466;28;20445;-46
2023/10/18 00:40:45;;;;;;;0.00;0.00;;;;;;;6.24;100.00;101199.91;5099251;27;20032;-43
2023/10/18 00:43:19;;;;;;;0.00;0.00;;;;;;;6.27;100.00;101196.94;5112423;28;20390;-47
2023/10/18 00:45:47;;;;;;;0.00;0.00;;;;;;;6.30;100.00;101196.66;5098370;28;20055;-45
2023/10/18 00:48:13;;;;;;;0.00;0.00;;;;;;;6.29;100.00;101189.63;5110139;28;20065;-45
2023/10/18 00:50:43;;;;;;;0.00;0.00;;;;;;;6.34;100.00;101195.34;5127385;27;20027;-48
2023/10/18 00:56:30;;;;;;;0.00;0.00;;;;;;;6.35;100.00;101199.75;5113128;28;20046;-47
2023/10/18 00:58:59;;;;;;;0.00;0.00;;;;;;;6.40;100.00;101199.31;5112801;28;20035;-45
2023/10/18 01:01:24;;;;;;;0.00;0.00;;;;;;;6.42;100.00;101191.13;5093454;28;20034;-48
2023/10/18 01:03:50;;;;;;;0.00;0.00;;;;;;;6.44;100.00;101194.50;5127594;27;20044;-44
2023/10/18 01:06:21;;;;;;;0.00;0.00;;;;;;;6.47;100.00;101180.84;5112575;28;20473;-45
2023/10/18 01:08:47;;;;;;;0.00;0.00;;;;;;;6.49;100.00;101170.84;5110963;28;20115;-49
2023/10/18 01:11:14;;;;;;;0.00;0.00;;;;;;;6.50;100.00;101169.84;5111314;28;20543;-46
2023/10/18 01:13:43;;;;;;;0.00;0.00;;;;;;;6.51;100.00;101169.69;5110857;28;20058;-44
2023/10/18 01:16:14;;;;;;;0.00;0.00;;;;;;;6.51;100.00;101163.53;5110806;28;20085;-43
2023/10/18 01:18:43;;;;;;;0.00;0.00;;;;;;;6.54;100.00;101161.38;5111823;28;20095;-45
2023/10/18 01:21:16;;;;;;;0.00;0.00;;;;;;;6.53;100.00;101162.38;5111160;28;20019;-48
2023/10/18 01:23:53;;;;;;;0.00;0.00;;;;;;;6.60;100.00;101157.28;5111769;28;20023;-45
2023/10/18 01:26:19;;;;;;;0.00;0.00;;;;;;;6.60;100.00;101150.09;5093137;28;20024;-44
2023/10/18 01:28:45;;;;;;;0.00;0.00;;;;;;;6.58;100.00;101138.72;5111295;28;20032;-46
2023/10/18 01:31:12;;;;;;;0.00;0.00;;;;;;;6.62;100.00;101144.59;5111090;28;20034;-43
2023/10/18 01:33:45;;;;;;;0.00;0.00;;;;;;;6.57;100.00;101138.84;5110496;28;20031;-40
2023/10/18 01:36:17;;;;;;;0.00;0.00;;;;;;;6.60;100.00;101133.19;5112276;28;20328;-46
2023/10/18 01:38:51;;;;;;;0.00;0.00;;;;;;;6.60;100.00;101138.56;5093477;28;20035;-43
2023/10/18 01:41:28;;;;;;;0.00;0.00;;;;;;;6.57;100.00;101120.97;5111328;28;20118;-47
2023/10/18 01:44:07;;;;;;;0.00;0.00;;;;;;;6.56;100.00;101121.13;5110595;28;20028;-44
2023/10/18 01:46:43;;;;;;;0.00;0.00;;;;;;;6.55;100.00;101120.25;5109924;28;20023;-44
2023/10/18 01:49:13;;;;;;;0.00;0.00;;;;;;;6.54;100.00;101109.75;5111050;28;20031;-46
2023/10/18 01:51:42;;;;;;;0.00;0.00;;;;;;;6.53;100.00;101103.56;5110914;28;20163;-46
2023/10/18 01:54:12;;;;;;;0.00;0.00;;;;;;;6.46;100.00;101112.31;5110182;28;20023;-45
2023/10/18 01:56:38;;;;;;;0.00;0.00;;;;;;;6.45;100.00;101107.94;5109688;28;20022;-45
2023/10/18 01:59:14;;;;;;;0.10;0.00;;;;;;;6.43;100.00;101108.09;5110819;28;20024;-44
2023/10/18 02:01:40;;;;;;;0.00;0.00;;;;;;;6.38;100.00;101103.19;5109812;28;20084;-44
2023/10/18 02:04:11;;;;;;;0.00;0.00;;;;;;;6.37;100.00;101104.19;5110810;28;20023;-44
2023/10/18 02:06:37;;;;;;;0.00;0.00;;;;;;;6.41;100.00;101111.91;5108826;28;20088;-43
2023/10/18 02:09:09;;;;;;;0.00;0.00;;;;;;;6.36;100.00;101099.81;5110028;28;20023;-46
2023/10/18 02:11:35;;;;;;;0.00;0.00;;;;;;;6.34;100.00;101095.63;5110202;28;20031;-44
2023/10/18 02:14:01;;;;;;;0.00;0.00;;;;;;;6.36;100.00;101085.63;5110887;28;20077;-44
2023/10/18 02:16:28;;;;;;;0.00;0.00;;;;;;;6.35;100.00;101090.13;5110330;28;20076;-42
2023/10/18 02:18:54;;;;;;;0.00;0.00;;;;;;;6.32;100.00;101082.41;5112011;28;20028;-45
2023/10/18 02:21:21;;;;;;;0.00;0.00;;;;;;;6.37;100.00;101085.50;5111444;28;20027;-44
2023/10/18 02:23:50;;;;;;;0.00;0.00;;;;;;;6.36;100.00;101083.78;5111323;28;20042;-43
2023/10/18 02:26:31;;;;;;;0.00;0.00;;;;;;;6.40;100.00;101080.81;5110214;28;20035;-44
2023/10/18 02:29:05;;;;;;;0.00;0.00;;;;;;;6.38;100.00;101076.47;5110637;28;20073;-47
2023/10/18 02:31:30;;;;;;;0.00;0.00;;;;;;;6.38;100.00;101064.94;5112968;28;20099;-43
2023/10/18 02:33:56;;;;;;;0.00;0.00;;;;;;;6.43;100.00;101064.50;5112518;28;20102;-43
2023/10/18 02:36:21;;;;;;;0.00;0.00;;;;;;;6.40;100.00;101056.75;5094424;28;20431;-44
2023/10/18 02:38:49;;;;;;;0.00;0.00;;;;;;;6.42;100.00;101054.78;5094308;28;20050;-45
2023/10/18 02:41:15;;;;;;;0.00;0.00;;;;;;;6.43;100.00;101056.47;5111818;28;20036;-46
2023/10/18 02:43:47;;;;;;;0.00;0.00;;;;;;;6.43;100.00;101061.81;5114162;28;20035;-43
2023/10/18 02:46:20;;;;;;;0.00;0.00;;;;;;;6.44;100.00;101058.16;5112801;28;20164;-45
2023/10/18 02:48:47;;;;;;;0.00;0.00;;;;;;;6.46;100.00;101050.81;5112934;28;20395;-43
2023/10/18 02:51:14;;;;;;;0.00;0.00;;;;;;;6.45;100.00;101038.44;5111223;28;20107;-43
2023/10/18 02:53:42;;;;;;;0.00;0.00;;;;;;;6.41;100.00;101037.91;5111347;28;20033;-45
2023/10/18 02:56:17;;;;;;;0.00;0.00;;;;;;;6.48;100.00;101035.47;5111060;28;20020;-45
2023/10/18 02:58:43;;;;;;;0.00;0.00;;;;;;;6.50;100.00;101025.44;5111295;28;20111;-43
2023/10/18 03:01:09;;;;;;;0.00;0.00;;;;;;;6.49;100.00;101024.63;5110682;28;20031;-42
2023/10/18 03:03:34;;;;;;;0.00;0.00;;;;;;;6.50;100.00;101020.97;5110573;28;20055;-42
2023/10/18 03:06:05;;;;;;;0.00;0.00;;;;;;;6.48;100.00;101014.09;5110680;28;20432;-43
2023/10/18 03:08:32;;;;;;;0.00;0.00;;;;;;;6.52;100.00;101015.44;5110099;28;20398;-46
2023/10/18 03:10:57;;;;;;;0.00;0.00;;;;;;;6.46;100.00;101013.41;5110289;28;20466;-44
2023/10/18 03:13:23;;;;;;;0.00;0.00;;;;;;;6.52;100.00;100999.41;5110658;28;20103;-44
2023/10/18 03:16:04;;;;;;;0.00;0.00;;;;;;;6.57;100.00;101005.97;5111168;28;20115;-45
2023/10/18 03:18:30;;;;;;;0.00;0.00;;;;;;;6.59;100.00;101004.00;5110607;28;20032;-45
2023/10/18 03:20:57;;;;;;;0.00;0.00;;;;;;;6.62;100.00;100991.31;5109615;28;20024;-45
2023/10/18 03:23:26;;;;;;;0.00;0.00;;;;;;;6.67;100.00;100989.88;5110381;28;20023;-42
2023/10/18 03:26:08;;;;;;;0.00;0.00;;;;;;;6.72;100.00;100987.56;5109849;28;20059;-43
2023/10/18 03:28:34;;;;;;;0.00;0.00;;;;;;;6.71;100.00;100975.19;5110142;28;20027;-41
2023/10/18 03:31:00;;;;;;;0.00;0.00;;;;;;;6.69;100.00;100971.84;5110606;28;20046;-46
2023/10/18 03:33:28;;;;;;;0.00;0.00;;;;;;;6.70;100.00;100962.81;5110621;28;20031;-46
2023/10/18 03:36:20;;;;;;;0.00;0.00;;;;;;;6.69;100.00;100963.81;5110628;28;20028;-43
2023/10/18 03:38:53;;;;;;;0.00;0.00;;;;;;;6.67;100.00;100952.44;5111933;28;20024;-45
2023/10/18 03:41:19;;;;;;;0.00;0.00;;;;;;;6.73;100.00;100967.00;5115212;28;20043;-46
2023/10/18 03:43:48;;;;;;;0.00;0.00;;;;;;;6.71;100.00;100948.44;5118585;28;20024;-48
2023/10/18 03:46:13;;;;;;;0.00;0.00;;;;;;;6.76;100.00;100946.13;5101799;28;20060;-42
2023/10/18 03:48:40;;;;;;;0.00;0.00;;;;;;;6.73;100.00;100943.78;5116087;28;20175;-46
2023/10/18 03:51:06;;;;;;;0.00;0.00;;;;;;;6.70;100.00;100936.06;5131524;27;20550;-43
2023/10/18 03:53:31;;;;;;;0.00;0.00;;;;;;;6.73;100.00;100941.09;5114571;28;20020;-46
2023/10/18 03:55:57;;;;;;;0.00;0.00;;;;;;;6.69;100.00;100936.22;5114264;28;20092;-44
2023/10/18 03:58:22;;;;;;;0.00;0.00;;;;;;;6.75;100.00;100938.28;5114461;28;20027;-46
2023/10/18 04:00:48;;;;;;;0.00;0.00;;;;;;;6.77;100.00;100934.47;5114061;28;20658;-42
2023/10/18 04:03:20;;;;;;;0.00;0.00;;;;;;;6.73;100.00;100933.06;5114261;28;20502;-43
2023/10/18 04:05:45;;;;;;;0.00;0.00;;;;;;;6.79;100.00;100945.84;5114598;28;20118;-45
2023/10/18 04:08:14;;;;;;;0.00;0.00;;;;;;;6.71;100.00;100936.91;5113340;28;20038;-44
2023/10/18 04:10:40;;;;;;;0.00;0.00;;;;;;;6.74;100.00;100937.44;5103623;28;20024;-46
2023/10/18 04:13:11;;;;;;;0.00;0.00;;;;;;;6.74;100.00;100942.81;5112689;28;20255;-41
2023/10/18 04:15:37;;;;;;;0.00;0.00;;;;;;;6.73;100.00;100933.06;5112803;28;20577;-45
2023/10/18 04:20:37;;;;;;;0.00;0.00;;;;;;;6.72;100.00;100925.22;5112694;28;20040;-42
2023/10/18 04:23:15;;;;;;;0.00;0.00;;;;;;;6.78;100.00;100911.22;5112187;28;20065;-43
2023/10/18 04:25:41;;;;;;;0.00;0.00;;;;;;;6.78;100.00;100912.06;5111931;28;20081;-44
2023/10/18 04:28:07;;;;;;;0.00;0.00;;;;;;;6.81;100.00;100902.88;5092048;28;20379;-43
2023/10/18 04:30:32;;;;;;;0.00;0.00;;;;;;;6.78;100.00;100901.34;5111946;28;20072;-43
2023/10/18 04:32:59;;;;;;;0.00;0.00;;;;;;;6.81;100.00;100905.56;5111800;28;20023;-44
2023/10/18 04:35:36;;;;;;;0.00;0.00;;;;;;;6.73;100.00;100903.66;5097769;28;20117;-44
2023/10/18 04:38:20;;;;;;;0.00;0.00;;;;;;;6.71;100.00;100897.63;5112287;28;20492;-44
2023/10/18 04:41:08;;;;;;;0.00;0.00;;;;;;;6.76;100.00;100902.50;5110707;28;20171;-46
2023/10/18 04:43:34;;;;;;;0.00;0.00;;;;;;;6.72;100.00;100885.94;5108411;28;20510;-45
2023/10/18 04:46:07;;;;;;;0.00;0.00;;;;;;;6.75;100.00;100882.94;5124033;27;20068;-46
2023/10/18 04:54:15;;;;;;;0.00;0.00;;;;;;;6.79;100.00;100870.94;5111199;28;20047;-45
2023/10/18 04:56:46;;;;;;;0.00;0.00;;;;;;;6.78;100.00;100857.72;5111212;28;20034;-44
2023/10/18 05:04:18;;;;;;;0.00;0.00;;;;;;;6.84;100.00;100848.22;5107447;28;20039;-44
2023/10/18 05:06:56;;;;;;;0.00;0.00;;;;;;;6.82;100.00;100840.38;5108040;28;20032;-46
2023/10/18 05:12:16;;;;;;;0.00;0.00;;;;;;;6.77;100.00;100840.84;5104233;28;20032;-44
2023/10/18 05:17:32;;;;;;;0.00;0.00;;;;;;;6.89;100.00;100837.91;5110076;28;20195;-48
2023/10/18 05:20:07;;;;;;;0.00;0.00;;;;;;;6.85;100.00;100831.19;5107041;28;20023;-45
2023/10/18 05:22:35;;;;;;;0.00;0.00;;;;;;;6.86;100.00;100830.19;5102756;28;20397;-46
2023/10/18 05:27:46;;;;;;;0.00;0.00;;;;;;;6.80;100.00;100818.28;5108011;28;20486;-43
2023/10/18 05:30:15;;;;;;;0.00;0.00;;;;;;;6.81;100.00;100820.78;5089494;28;20397;-43
2023/10/18 05:33:03;;;;;;;0.00;0.00;;;;;;;6.78;100.00;100818.44;5109252;28;20088;-45
2023/10/18 05:35:30;;;;;;;0.00;0.00;;;;;;;6.80;100.00;100811.09;5101588;28;20375;-46
2023/10/18 05:37:59;;;;;;;0.00;0.00;;;;;;;6.82;100.00;100816.31;5109302;28;20431;-43
2023/10/18 05:43:04;;;;;;;0.00;0.00;;;;;;;6.85;100.00;100807.13;5106787;28;20070;-42
2023/10/18 05:45:31;;;;;;;0.00;0.00;;;;;;;6.79;100.00;100806.75;5109886;28;20065;-45
2023/10/18 05:47:58;;;;;;;0.00;0.00;;;;;;;6.73;100.00;100807.38;5091122;28;20459;-46
2023/10/18 05:50:24;;;;;;;0.00;0.00;;;;;;;6.80;100.00;100786.19;5107366;28;20041;-45
2023/10/18 05:52:57;;;;;;;0.00;0.00;;;;;;;6.84;100.00;100784.84;5106223;28;20096;-44
2023/10/18 05:55:23;;;;;;;0.00;0.00;;;;;;;6.87;100.00;100791.72;5109694;28;20024;-43
2023/10/18 05:57:50;;;;;;;0.00;0.00;;;;;;;6.88;100.00;100786.22;5105729;27;20083;-48
2023/10/18 06:00:17;;;;;;;0.00;0.00;;;;;;;6.80;100.00;100780.84;5101152;28;20435;-45
2023/10/18 06:02:43;;;;;;;0.00;0.00;;;;;;;6.81;100.00;100783.34;5101240;27;20122;-45
2023/10/18 06:05:12;;;;;;;0.00;0.00;;;;;;;6.84;100.00;100776.00;5109350;28;20030;-41
2023/10/18 06:07:37;;;;;;;0.00;0.00;;;;;;;6.86;100.00;100782.03;5103599;27;20063;-44
2023/10/18 06:10:16;;;;;;;0.00;0.00;;;;;;;6.86;100.00;100780.19;5106762;28;20114;-44
2023/10/18 06:12:46;;;;;;;0.00;0.00;;;;;;;6.86;100.00;100771.34;5105630;28;20023;-45
2023/10/18 06:15:19;;;;;;;0.00;0.00;;;;;;;6.81;100.00;100767.28;5107456;28;20020;-45
2023/10/18 06:20:16;;;;;;;0.00;0.00;;;;;;;6.85;100.00;100758.97;5106401;28;20035;-41
2023/10/18 06:22:47;;;;;;;0.00;0.00;;;;;;;6.80;100.00;100756.75;5105934;28;20508;-43
2023/10/18 06:25:25;;;;;;;0.00;0.00;;;;;;;6.83;100.00;100756.44;5106813;28;20051;-43
2023/10/18 06:27:50;;;;;;;;;;;;;;;6.82;100.00;100760.97;5106584;28;20519;-45
2023/10/18 06:30:17;;;;;;;0.00;0.00;;;;;;;6.89;100.00;100752.28;5108905;28;19911;-41
2023/10/18 06:32:44;;;;;;;0.00;0.00;;;;;;;6.90;100.00;100743.25;5107908;27;20039;-45
2023/10/18 06:35:15;;;;;;;0.00;0.00;;;;;;;6.91;100.00;100737.75;5109347;28;20028;-43
2023/10/18 06:37:44;;;;;;;0.00;0.00;;;;;;;6.91;100.00;100734.25;5108860;28;20087;-43
2023/10/18 06:40:24;;;;;;;0.00;0.00;;;;;;;6.99;100.00;100731.59;5087576;28;20080;-44
2023/10/18 06:42:49;;;;;;;0.00;0.00;;;;;;;6.97;100.00;100729.06;5119236;27;20031;-42
2023/10/18 06:45:17;;;;;;;0.00;0.00;;;;;;;7.03;100.00;100727.63;5094009;28;20034;-44
2023/10/18 06:47:45;;;;;;;0.00;0.00;;;;;;;7.03;100.00;100720.41;5085778;28;20392;-41
2023/10/18 06:50:26;;;;;;;0.00;0.00;;;;;;;7.10;100.00;100717.91;5096766;28;20081;-44
2023/10/18 06:52:52;;;;;;;0.00;0.00;;;;;;;7.14;100.00;100711.25;5105320;28;20054;-44
2023/10/18 06:55:21;;;;;;;0.00;0.00;;;;;;;7.19;100.00;100714.28;5109053;28;20027;-44
2023/10/18 06:57:49;;;;;;;0.00;0.00;;;;;;;7.19;100.00;100708.09;5124015;27;20084;-48
2023/10/18 07:00:15;;;;;;;0.00;0.00;;;;;;;7.28;100.00;100715.13;5088549;28;20023;-49
2023/10/18 07:02:41;;;;;;;0.00;0.00;;;;;;;7.24;100.00;100714.63;5073977;28;20510;-46
2023/10/18 07:05:09;;;;;;;0.00;0.00;;;;;;;7.30;100.00;100709.63;5081196;28;20158;-48
2023/10/18 07:07:37;;;;;;;0.00;0.00;;;;;;;7.29;100.00;100713.28;5083031;28;20076;-43
2023/10/18 07:10:05;;;;;;;0.00;0.00;;;;;;;7.31;100.00;100714.78;5103353;28;20486;-45
2023/10/18 07:12:44;;;;;;;;;;;;;;;7.37;100.00;100710.63;5108844;28;20709;-48
2023/10/18 07:15:15;;;;;;;0.00;0.00;;;;;;;7.38;100.00;100698.94;5106953;28;19919;-44
2023/10/18 07:17:40;;;;;;;0.00;0.00;;;;;;;7.40;100.00;100696.94;5109125;28;20058;-41
2023/10/18 07:20:15;;;;;;;0.00;0.00;;;;;;;7.40;100.00;100699.59;5107666;28;20489;-42
2023/10/18 07:22:49;;;;;;;0.00;0.00;;;;;;;7.44;100.00;100701.75;5108832;28;20058;-47
2023/10/18 07:25:27;;;;;;;0.00;0.00;;;;;;;7.48;100.00;100699.63;5107751;28;20243;-45
2023/10/18 07:27:55;;;;;;;0.00;0.00;;;;;;;7.54;100.00;100693.59;5082500;28;20039;-42
2023/10/18 07:30:20;;;;;;;0.00;0.00;;;;;;;7.60;100.00;100682.19;5091945;28;20123;-47
2023/10/18 07:32:48;;;;;;;0.00;0.00;;;;;;;7.67;100.00;100691.25;5111282;28;20122;-44
2023/10/18 07:35:26;;;;;;;0.00;0.00;;;;;;;7.67;100.00;100688.56;5110649;28;20093;-41
2023/10/18 07:37:55;;;;;;;0.00;0.00;;;;;;;7.66;100.00;100689.59;5111920;28;20037;-42
2023/10/18 07:40:21;;;;;;;0.00;0.00;;;;;;;7.79;100.00;100688.22;5113681;28;20039;-44
2023/10/18 07:42:51;;;;;;;0.00;0.00;;;;;;;7.88;100.00;100681.88;5105846;28;20087;-44
2023/10/18 07:45:17;;;;;;;0.00;0.00;;;;;;;7.88;100.00;100676.53;5107206;28;20055;-44
2023/10/18 07:47:42;;;;;;;0.00;0.00;;;;;;;7.92;100.00;100669.81;5109576;28;20054;-42
2023/10/18 07:52:54;;;;;;;0.00;0.00;;;;;;;8.07;100.00;100657.41;5108568;28;20038;-43
2023/10/18 07:55:21;;;;;;;0.00;0.00;;;;;;;8.09;100.00;100642.00;5103872;28;20036;-45
2023/10/18 07:57:50;;;;;;;0.08;0.00;;;;;;;8.43;100.00;100640.94;5107811;28;20078;-44
2023/10/18 08:00:22;;;;;;;0.00;0.00;;;;;;;8.62;100.00;100644.22;5104711;28;20039;-46
2023/10/18 08:02:48;;;;;;;0.00;0.00;;;;;;;9.07;100.00;100643.47;5109104;28;20036;-48
2023/10/18 08:05:30;;;;;;;0.00;0.00;;;;;;;9.54;100.00;100650.53;5107192;28;20043;-44
2023/10/18 08:07:57;;;;;;;0.00;0.00;;;;;;;9.92;100.00;100647.03;5108610;28;20501;-45
2023/10/18 08:10:23;;;;;;;0.00;0.00;;;;;;;10.18;100.00;100643.91;5105094;28;20035;-47
2023/10/18 08:13:03;;;;;;;0.00;0.00;;;;;;;10.06;100.00;100644.38;5108792;28;20027;-48
2023/10/18 08:15:34;;;;;;;0.00;0.00;;;;;;;10.10;100.00;100642.97;5107527;28;20465;-47
2023/10/18 08:18:00;;;;;;;0.00;0.00;;;;;;;10.24;100.00;100637.78;5105417;28;20394;-45
2023/10/18 08:22:51;;;;;;;0.00;0.00;;;;;;;10.26;100.00;100627.69;5110038;28;20214;-45
2023/10/18 08:25:29;;;;;;;0.00;0.00;;;;;;;10.16;100.00;100622.56;5110975;28;20032;-43
2023/10/18 08:27:55;;;;;;;;;;;;;;;10.27;100.00;100614.09;5097758;28;20027;-47
2023/10/18 08:33:08;;;;;;;0.00;0.00;;;;;;;10.33;100.00;100607.97;5098218;28;20204;-45
2023/10/18 08:35:34;;;;;;;0.00;0.00;;;;;;;10.19;100.00;100600.72;5113401;28;20382;-42
2023/10/18 08:38:01;;;;;;;0.00;0.00;;;;;;;10.21;100.00;100598.66;5113239;28;20082;-48
2023/10/18 08:40:37;;;;;;;0.00;0.00;;;;;;;10.08;100.00;100587.69;5113927;28;20024;-43
2023/10/18 08:43:15;;;;;;;0.00;0.00;;;;;;;10.04;100.00;100592.63;5113431;28;20422;-43
2023/10/18 08:45:47;;;;;;;0.00;0.00;;;;;;;10.00;100.00;100593.16;5112944;28;20024;-45
2023/10/18 08:48:27;;;;;;;0.00;0.00;;;;;;;9.99;100.00;100586.13;5112997;28;20020;-49
2023/10/18 08:50:54;;;;;;;0.00;0.00;;;;;;;9.94;100.00;100601.97;5113262;28;20028;-49
2023/10/18 08:53:22;;;;;;;0.00;0.00;;;;;;;10.06;100.00;100582.53;5094679;28;20020;-47
2023/10/18 08:55:51;;;;;;;0.00;0.00;;;;;;;10.25;100.00;100578.44;5112921;28;20019;-45
2023/10/18 08:58:19;;;;;;;0.00;0.00;;;;;;;10.39;100.00;100578.66;5112365;27;20083;-46
2023/10/18 09:03:21;;;;;;;0.00;0.00;;;;;;;10.41;100.00;100569.38;5114047;27;20410;-42
2023/10/18 09:05:48;;;;;;;0.00;0.00;;;;;;;10.23;100.00;100561.66;5112787;28;20024;-47
2023/10/18 09:08:26;;;;;;;0.00;0.00;;;;;;;10.30;100.00;100562.59;5112665;27;20654;-45
2023/10/18 09:10:55;;;;;;;0.00;0.00;;;;;;;10.20;100.00;100558.50;5090644;28;20524;-45
2023/10/18 09:16:02;;;;;;;;;;;;;;;10.04;100.00;100538.03;5112922;28;20111;-47
2023/10/18 09:18:31;;;;;;;0.00;0.00;;;;;;;10.08;100.00;100537.47;5112853;27;19970;-45
2023/10/18 09:23:40;;;;;;;0.00;0.00;;;;;;;10.02;100.00;100534.69;5113688;27;20043;-43
2023/10/18 09:26:18;;;;;;;0.00;0.00;;;;;;;10.13;100.00;100547.66;5120751;27;20076;-45
2023/10/18 09:28:44;;;;;;;;;;;;;;;10.18;100.00;100523.72;5111102;28;20477;-45
2023/10/18 09:31:18;;;;;;;0.00;0.00;;;;;;;10.21;100.00;100517.97;5114761;27;20291;-48
2023/10/18 09:33:49;;;;;;;0.00;0.00;;;;;;;10.33;100.00;100519.19;5116098;27;20544;-46
2023/10/18 09:36:19;;;;;;;0.00;0.00;;;;;;;10.47;100.00;100512.09;5111040;27;20126;-45
2023/10/18 09:38:49;;;;;;;0.00;0.00;;;;;;;10.52;100.00;100500.78;5111134;27;20035;-47
2023/10/18 09:41:15;;;;;;;0.00;0.00;;;;;;;10.64;100.00;100496.56;5110673;28;20039;-45
2023/10/18 09:43:41;;;;;;;0.00;0.00;;;;;;;10.61;100.00;100488.88;5104276;27;20027;-46
2023/10/18 09:46:10;;;;;;;0.00;0.00;;;;;;;10.54;100.00;100479.91;5108107;28;20039;-43
2023/10/18 09:48:41;;;;;;;0.00;0.00;;;;;;;10.59;100.00;100482.84;5109953;28;20042;-45
2023/10/18 09:51:10;;;;;;;0.00;0.00;;;;;;;10.66;100.00;100478.34;5111456;28;20157;-45
2023/10/18 09:53:42;;;;;;;0.00;0.00;;;;;;;10.90;100.00;100473.63;5111799;28;20031;-51
2023/10/18 09:56:15;;;;;;;0.00;0.00;;;;;;;10.75;100.00;100469.16;5111439;28;20028;-45
2023/10/18 09:58:43;;;;;;;0.00;0.00;;;;;;;10.87;100.00;100468.63;5107694;28;20024;-45
2023/10/18 10:01:14;;;;;;;0.00;0.00;;;;;;;10.92;100.00;100458.94;5110856;28;20034;-48
2023/10/18 10:03:50;;;;;;;0.00;0.00;;;;;;;10.94;100.00;100459.59;5097651;28;20040;-44
2023/10/18 10:06:18;;;;;;;0.00;0.00;;;;;;;10.84;100.00;100450.16;5109914;28;20474;-45
2023/10/18 10:08:47;;;;;;;0.00;0.00;;;;;;;10.94;100.00;100453.38;5111605;27;20027;-44
2023/10/18 10:11:14;;;;;;;0.00;0.00;;;;;;;11.00;100.00;100447.19;5111838;28;20038;-45
2023/10/18 10:13:39;;;;;;;0.00;0.00;;;;;;;11.09;100.00;100445.22;5113523;28;20023;-44
2023/10/18 10:16:08;;;;;;;0.00;0.00;;;;;;;11.11;100.00;100444.00;5109541;28;20557;-48
2023/10/18 10:18:38;;;;;;;0.00;0.00;;;;;;;11.14;100.00;100432.00;5114870;28;20565;-45
2023/10/18 10:21:08;;;;;;;0.00;0.00;;;;;;;11.20;100.00;100425.81;5095508;28;20036;-47
2023/10/18 10:23:35;;;;;;;0.00;0.00;;;;;;;11.24;100.00;100420.84;5094482;28;20039;-44
2023/10/18 10:26:27;;;;;;;0.00;0.00;;;;;;;11.20;100.00;100421.25;5112936;28;20066;-49
2023/10/18 10:31:56;;;;;;;0.00;0.00;;;;;;;11.39;100.00;100410.81;5094675;28;20043;-47
2023/10/18 10:34:26;;;;;;;0.00;0.00;;;;;;;11.24;100.00;100389.38;5106717;27;20362;-46
2023/10/18 10:37:15;;;;;;;0.00;0.00;;;;;;;11.20;100.00;100394.31;5110823;28;20036;-44
2023/10/18 10:39:44;;;;;;;0.00;0.00;;;;;;;11.18;100.00;100387.47;5111020;28;20393;-44
2023/10/18 10:42:27;;;;;;;0.00;0.00;;;;;;;11.29;100.00;100378.81;5111090;28;20027;-45
2023/10/18 10:45:35;;;;;;;0.00;0.00;;;;;;;11.53;100.00;100382.06;5108749;28;20036;-45
2023/10/18 10:47:50;;;;;;;0.00;0.00;;;;;;;11.68;100.00;100379.25;5100026;28;20122;-44
2023/10/18 10:50:42;;;;;;;0.00;0.00;;;;;;;11.60;100.00;100375.69;5110628;28;20034;-46
2023/10/18 10:53:10;;;;;;;0.00;0.00;;;;;;;11.81;100.00;100360.44;5110924;28;20031;-45
2023/10/18 10:55:36;;;;;;;0.00;0.00;;;;;;;11.92;100.00;100351.78;5110777;28;20019;-46
2023/10/18 10:58:15;;;;;;;0.00;0.00;;;;;;;11.93;100.00;100349.91;5111243;28;20450;-43
2023/10/18 11:01:05;;;;;;;0.00;0.00;;;;;;;12.08;100.00;100346.03;5110461;28;20110;-49
2023/10/18 11:03:52;;;;;;;0.00;0.00;;;;;;;12.23;100.00;100350.41;5110205;28;20043;-49
2023/10/18 11:06:24;;;;;;;0.00;0.00;;;;;;;12.29;100.00;100336.91;5110660;28;20059;-47
2023/10/18 11:08:53;;;;;;;0.00;0.00;;;;;;;12.23;100.00;100331.53;5096387;28;20020;-49
2023/10/18 11:11:22;;;;;;;0.00;0.00;;;;;;;12.47;100.00;100325.53;5109701;28;20040;-47
2023/10/18 11:13:49;;;;;;;0.00;0.00;;;;;;;12.40;100.00;100316.63;5110269;28;20028;-49
2023/10/18 11:16:17;;;;;;;0.00;0.00;;;;;;;12.44;100.00;100309.75;5110656;28;20023;-47
2023/10/18 11:18:47;;;;;;;0.00;0.00;;;;;;;12.54;100.00;100297.72;5110318;28;20272;-43
2023/10/18 11:21:28;;;;;;;0.00;0.00;;;;;;;12.60;100.00;100284.22;5110698;28;20036;-45
2023/10/18 11:24:01;;;;;;;0.00;0.00;;;;;;;12.66;100.00;100286.06;5110630;28;20027;-47
2023/10/18 11:26:27;;;;;;;0.00;0.00;;;;;;;12.79;100.00;100271.72;5110580;28;20092;-44
2023/10/18 11:28:59;;;;;;;0.00;0.00;;;;;;;12.79;100.00;100274.41;5112127;28;20103;-47
2023/10/18 11:31:28;;;;;;;0.00;0.00;;;;;;;12.83;100.00;100264.88;5094446;28;20027;-47
2023/10/18 11:34:04;;;;;;;0.00;0.00;;;;;;;12.93;100.00;100262.56;5110336;28;20491;-48
2023/10/18 11:36:32;;;;;;;0.00;0.00;;;;;;;12.92;100.00;100263.59;5110143;28;20062;-44
2023/10/18 11:39:18;;;;;;;0.00;0.00;;;;;;;13.15;100.00;100251.47;5116893;28;20019;-48
2023/10/18 11:41:53;;;;;;;0.00;0.00;;;;;;;13.32;100.00;100241.03;5110449;28;20027;-46
2023/10/18 11:44:31;;;;;;;0.00;0.00;;;;;;;13.50;100.00;100238.47;5110468;28;20246;-45
2023/10/18 11:47:01;;;;;;;0.00;0.00;;;;;;;13.53;100.00;100234.50;5110308;28;20042;-45
2023/10/18 11:49:35;;;;;;;0.00;0.00;;;;;;;13.42;100.00;100232.47;5116400;28;20487;-42
2023/10/18 11:52:01;;;;;;;0.00;0.00;;;;;;;13.45;100.00;100227.47;5110542;28;20051;-44
2023/10/18 11:54:36;;;;;;;0.00;0.00;;;;;;;13.92;100.00;100214.47;5111304;28;20054;-42
2023/10/18 11:57:06;;;;;;;0.00;0.00;;;;;;;14.18;100.00;100215.34;5109709;28;20034;-44
2023/10/18 11:59:51;;;;;;;0.00;0.00;;;;;;;13.72;100.00;100214.63;5108948;28;20038;-44
2023/10/18 12:02:16;;;;;;;0.00;0.00;;;;;;;13.64;100.00;100217.59;5117443;28;20044;-44
2023/10/18 12:04:44;;;;;;;0.00;0.00;;;;;;;13.50;100.00;100199.78;5115918;28;20070;-44
2023/10/18 12:07:10;;;;;;;0.00;0.00;;;;;;;13.43;100.00;100193.59;5115625;28;20036;-44
2023/10/18 12:09:51;;;;;;;0.00;0.00;;;;;;;13.25;100.00;100197.81;5102884;28;20075;-43
2023/10/18 12:12:20;;;;;;;0.00;0.00;;;;;;;13.15;100.00;100186.63;5115218;28;20098;-44
2023/10/18 12:14:48;;;;;;;0.00;0.00;;;;;;;13.07;100.00;100171.50;5114263;28;20024;-45
2023/10/18 12:17:15;;;;;;;0.00;0.00;;;;;;;13.10;100.00;100181.03;5114560;28;20028;-43
2023/10/18 12:19:41;;;;;;;0.00;0.00;;;;;;;13.29;100.00;100171.22;5114058;28;20028;-45
2023/10/18 12:22:09;;;;;;;0.00;0.00;;;;;;;13.54;100.00;100174.00;5114125;28;20454;-43
2023/10/18 12:24:35;;;;;;;0.00;0.00;;;;;;;13.79;100.00;100172.13;5114025;28;20359;-44
2023/10/18 12:27:18;;;;;;;0.00;0.00;;;;;;;13.86;100.00;100165.88;5114143;27;20148;-44
2023/10/18 12:29:44;;;;;;;0.00;0.00;;;;;;;13.98;100.00;100164.06;5121789;27;20030;-45
2023/10/18 12:35:07;;;;;;;0.00;0.00;;;;;;;14.08;100.00;100153.59;5078119;27;20068;-43
2023/10/18 12:37:33;;;;;;;0.00;0.00;;;;;;;14.32;100.00;100142.97;5134919;27;20035;-45
2023/10/18 12:39:59;;;;;;;0.00;0.00;;;;;;;14.53;100.00;100129.00;5134759;27;20041;-46
2023/10/18 12:42:25;;;;;;;0.00;0.00;;;;;;;14.82;100.00;100126.59;5134918;27;20062;-44
2023/10/18 12:44:55;;;;;;;0.00;0.00;;;;;;;15.14;100.00;100119.94;5134697;27;20050;-45